sensor_id;sensor_type;location;lat;lon;timestamp;pressure;altitude;pressure_sealevel;temperature;humidity
77739;BME280;66904;59.926;30.404;2023-04-06T00:01:52;102875.56;;;25.41;28.13
77739;BME280;66904;59.926;30.404;2023-04-06T00:06:52;102879.13;;;25.42;28.08
77739;BME280;66904;59.926;30.404;2023-04-06T00:12:01;102872.69;;;25.43;27.94
77739;BME280;66904;59.926;30.404;2023-04-06T00:17:35;102868.66;;;25.47;28.02
77739;BME280;66904;59.926;30.404;2023-04-06T00:22:57;102877.63;;;25.47;28.32
77739;BME280;66904;59.926;30.404;2023-04-06T00:28:12;102872.34;;;25.46;28.04
77739;BME280;66904;59.926;30.404;2023-04-06T00:33:13;102864.41;;;25.44;27.93
77739;BME280;66904;59.926;30.404;2023-04-06T00:38:14;102874.06;;;25.47;28.11
77739;BME280;66904;59.926;30.404;2023-04-06T00:43:15;102863.22;;;25.47;27.98
77739;BME280;66904;59.926;30.404;2023-04-06T00:48:16;102866.78;;;25.47;27.82
77739;BME280;66904;59.926;30.404;2023-04-06T00:53:38;102863.66;;;25.52;27.87
77739;BME280;66904;59.926;30.404;2023-04-06T00:58:41;102869.50;;;25.47;27.83
77739;BME280;66904;59.926;30.404;2023-04-06T01:03:42;102870.50;;;25.46;27.90
77739;BME280;66904;59.926;30.404;2023-04-06T01:08:44;102877.41;;;25.41;27.78
77739;BME280;66904;59.926;30.404;2023-04-06T01:13:46;102873.72;;;25.42;27.83
77739;BME280;66904;59.926;30.404;2023-04-06T01:18:46;102888.09;;;25.42;28.05
77739;BME280;66904;59.926;30.404;2023-04-06T01:23:47;102888.09;;;25.42;27.85
77739;BME280;66904;59.926;30.404;2023-04-06T01:29:24;102890.34;;;25.47;27.95
77739;BME280;66904;59.926;30.404;2023-04-06T01:40:28;102890.78;;;25.42;27.81
77739;BME280;66904;59.926;30.404;2023-04-06T01:45:28;102891.81;;;25.41;27.76
77739;BME280;66904;59.926;30.404;2023-04-06T01:50:29;102886.72;;;25.38;27.54
77739;BME280;66904;59.926;30.404;2023-04-06T01:55:29;102896.22;;;25.42;27.68
77739;BME280;66904;59.926;30.404;2023-04-06T02:00:30;102898.09;;;25.42;27.49
77739;BME280;66904;59.926;30.404;2023-04-06T02:05:32;102889.97;;;25.42;27.56
77739;BME280;66904;59.926;30.404;2023-04-06T02:10:37;102885.69;;;25.39;27.52
77739;BME280;66904;59.926;30.404;2023-04-06T02:15:38;102896.94;;;25.44;27.46
77739;BME280;66904;59.926;30.404;2023-04-06T02:20:38;102894.34;;;25.43;27.57
77739;BME280;66904;59.926;30.404;2023-04-06T02:26:08;102897.78;;;25.45;27.37
77739;BME280;66904;59.926;30.404;2023-04-06T02:37:02;102910.63;;;25.43;27.47
77739;BME280;66904;59.926;30.404;2023-04-06T02:42:40;102912.66;;;25.41;27.46
77739;BME280;66904;59.926;30.404;2023-04-06T02:48:05;102916.75;;;25.45;27.35
77739;BME280;66904;59.926;30.404;2023-04-06T02:53:57;102918.44;;;25.46;27.22
77739;BME280;66904;59.926;30.404;2023-04-06T02:59:16;102917.06;;;25.42;27.32
77739;BME280;66904;59.926;30.404;2023-04-06T03:04:17;102914.19;;;25.43;27.28
77739;BME280;66904;59.926;30.404;2023-04-06T03:09:17;102922.31;;;25.43;27.49
77739;BME280;66904;59.926;30.404;2023-04-06T03:14:18;102924.16;;;25.43;27.68
77739;BME280;66904;59.926;30.404;2023-04-06T03:19:21;102928.22;;;25.39;27.05
77739;BME280;66904;59.926;30.404;2023-04-06T03:24:22;102927.91;;;25.42;27.31
77739;BME280;66904;59.926;30.404;2023-04-06T03:29:23;102927.91;;;25.42;27.33
77739;BME280;66904;59.926;30.404;2023-04-06T03:34:23;102928.59;;;25.44;27.29
77739;BME280;66904;59.926;30.404;2023-04-06T03:39:24;102923.84;;;25.46;27.49
77739;BME280;66904;59.926;30.404;2023-04-06T03:44:24;102937.25;;;25.47;27.07
77739;BME280;66904;59.926;30.404;2023-04-06T03:49:25;102936.25;;;25.48;26.98
77739;BME280;66904;59.926;30.404;2023-04-06T03:54:25;102941.53;;;25.50;27.57
77739;BME280;66904;59.926;30.404;2023-04-06T03:59:26;102942.41;;;25.50;27.35
77739;BME280;66904;59.926;30.404;2023-04-06T04:04:26;102935.22;;;25.49;27.37
77739;BME280;66904;59.926;30.404;2023-04-06T04:09:27;102938.59;;;25.43;27.43
77739;BME280;66904;59.926;30.404;2023-04-06T04:14:27;102948.19;;;25.38;27.67
77739;BME280;66904;59.926;30.404;2023-04-06T04:19:28;102957.31;;;25.37;27.65
77739;BME280;66904;59.926;30.404;2023-04-06T04:24:28;102958.88;;;25.39;27.96
77739;BME280;66904;59.926;30.404;2023-04-06T04:29:29;102962.84;;;25.45;27.79
77739;BME280;66904;59.926;30.404;2023-04-06T04:34:30;102966.91;;;25.49;28.19
77739;BME280;66904;59.926;30.404;2023-04-06T04:39:31;102965.47;;;25.54;28.67
77739;BME280;66904;59.926;30.404;2023-04-06T04:44:32;102975.28;;;25.55;28.72
77739;BME280;66904;59.926;30.404;2023-04-06T04:49:32;102972.44;;;25.57;29.13
77739;BME280;66904;59.926;30.404;2023-04-06T04:54:57;102979.94;;;25.63;30.07
77739;BME280;66904;59.926;30.404;2023-04-06T05:00:31;102971.25;;;25.59;29.05
77739;BME280;66904;59.926;30.404;2023-04-06T05:06:15;102978.63;;;25.67;29.60
77739;BME280;66904;59.926;30.404;2023-04-06T05:11:19;102985.22;;;25.64;28.70
77739;BME280;66904;59.926;30.404;2023-04-06T05:16:20;102978.25;;;25.62;28.88
77739;BME280;66904;59.926;30.404;2023-04-06T05:21:20;102979.56;;;25.58;28.70
77739;BME280;66904;59.926;30.404;2023-04-06T05:26:21;102984.47;;;25.54;28.52
77739;BME280;66904;59.926;30.404;2023-04-06T05:31:21;102997.47;;;25.51;28.52
77739;BME280;66904;59.926;30.404;2023-04-06T05:36:22;102988.91;;;25.46;28.43
77739;BME280;66904;59.926;30.404;2023-04-06T05:41:23;102991.06;;;25.42;28.08
77739;BME280;66904;59.926;30.404;2023-04-06T05:46:23;102985.44;;;25.36;27.91
77739;BME280;66904;59.926;30.404;2023-04-06T05:51:24;102998.75;;;25.47;27.85
77739;BME280;66904;59.926;30.404;2023-04-06T05:56:25;103002.03;;;25.50;27.77
77739;BME280;66904;59.926;30.404;2023-04-06T06:01:26;102997.47;;;25.51;27.71
77739;BME280;66904;59.926;30.404;2023-04-06T06:06:27;102997.47;;;25.51;27.57
77739;BME280;66904;59.926;30.404;2023-04-06T06:11:30;102993.75;;;25.52;27.48
77739;BME280;66904;59.926;30.404;2023-04-06T06:16:30;103001.72;;;25.53;27.27
77739;BME280;66904;59.926;30.404;2023-04-06T06:21:31;102998.88;;;25.55;27.21
77739;BME280;66904;59.926;30.404;2023-04-06T06:26:32;103006.16;;;25.54;27.33
77739;BME280;66904;59.926;30.404;2023-04-06T06:31:32;103003.56;;;25.53;27.25
77739;BME280;66904;59.926;30.404;2023-04-06T06:36:33;103003.13;;;25.57;27.11
77739;BME280;66904;59.926;30.404;2023-04-06T06:47:32;103019.94;;;25.61;27.10
77739;BME280;66904;59.926;30.404;2023-04-06T06:52:54;103013.97;;;25.57;26.81
77739;BME280;66904;59.926;30.404;2023-04-06T06:58:06;103014.09;;;25.56;26.81
77739;BME280;66904;59.926;30.404;2023-04-06T07:03:07;103018.53;;;25.57;26.82
77739;BME280;66904;59.926;30.404;2023-04-06T07:08:08;103018.66;;;25.55;26.73
77739;BME280;66904;59.926;30.404;2023-04-06T07:13:08;103016.81;;;25.56;26.98
77739;BME280;66904;59.926;30.404;2023-04-06T07:18:09;103026.66;;;25.57;26.68
77739;BME280;66904;59.926;30.404;2023-04-06T07:23:10;103006.47;;;25.51;26.75
77739;BME280;66904;59.926;30.404;2023-04-06T07:28:10;103022.31;;;25.64;26.89
77739;BME280;66904;59.926;30.404;2023-04-06T07:33:11;103029.16;;;25.68;26.43
77739;BME280;66904;59.926;30.404;2023-04-06T07:38:11;103034.25;;;25.71;26.56
77739;BME280;66904;59.926;30.404;2023-04-06T07:43:12;103034.94;;;25.73;26.44
77739;BME280;66904;59.926;30.404;2023-04-06T07:48:13;103041.75;;;25.77;26.61
77739;BME280;66904;59.926;30.404;2023-04-06T07:53:13;103028.88;;;25.79;26.53
77739;BME280;66904;59.926;30.404;2023-04-06T07:58:14;103038.72;;;25.80;26.16
77739;BME280;66904;59.926;30.404;2023-04-06T08:03:14;103020.53;;;25.73;26.56
77739;BME280;66904;59.926;30.404;2023-04-06T08:08:16;103042.28;;;25.81;26.12
77739;BME280;66904;59.926;30.404;2023-04-06T08:13:17;103034.31;;;25.79;26.31
77739;BME280;66904;59.926;30.404;2023-04-06T08:18:17;103038.50;;;25.74;26.19
77739;BME280;66904;59.926;30.404;2023-04-06T08:23:18;103049.81;;;25.69;26.13
77739;BME280;66904;59.926;30.404;2023-04-06T08:28:18;103052.16;;;25.64;25.88
77739;BME280;66904;59.926;30.404;2023-04-06T08:33:19;103049.88;;;25.59;26.26
77739;BME280;66904;59.926;30.404;2023-04-06T08:38:20;103057.03;;;25.60;26.21
77739;BME280;66904;59.926;30.404;2023-04-06T08:43:22;103061.59;;;25.60;26.62
77739;BME280;66904;59.926;30.404;2023-04-06T08:48:23;103061.44;;;25.61;26.97
77739;BME280;66904;59.926;30.404;2023-04-06T08:53:24;103058.56;;;25.63;26.78
77739;BME280;66904;59.926;30.404;2023-04-06T08:58:28;103063.53;;;25.67;27.06
77739;BME280;66904;59.926;30.404;2023-04-06T09:03:31;103058.44;;;25.64;26.81
77739;BME280;66904;59.926;30.404;2023-04-06T09:08:34;103065.53;;;25.65;27.25
77739;BME280;66904;59.926;30.404;2023-04-06T09:13:52;103074.22;;;25.69;27.64
77739;BME280;66904;59.926;30.404;2023-04-06T09:18:53;103074.06;;;25.70;27.43
77739;BME280;66904;59.926;30.404;2023-04-06T09:24:00;103068.34;;;25.74;28.15
77739;BME280;66904;59.926;30.404;2023-04-06T09:29:01;103068.47;;;25.72;27.49
77739;BME280;66904;59.926;30.404;2023-04-06T09:34:03;103069.31;;;25.73;27.47
77739;BME280;66904;59.926;30.404;2023-04-06T09:39:04;103065.38;;;25.67;27.53
77739;BME280;66904;59.926;30.404;2023-04-06T09:44:06;103072.34;;;25.69;27.59
77739;BME280;66904;59.926;30.404;2023-04-06T09:49:09;103068.25;;;25.65;27.45
77739;BME280;66904;59.926;30.404;2023-04-06T09:54:11;103071.81;;;25.66;27.34
77739;BME280;66904;59.926;30.404;2023-04-06T09:59:24;103063.53;;;25.67;27.29
77739;BME280;66904;59.926;30.404;2023-04-06T10:04:58;103067.78;;;25.70;27.59
77739;BME280;66904;59.926;30.404;2023-04-06T10:10:14;103069.81;;;25.68;27.57
77739;BME280;66904;59.926;30.404;2023-04-06T10:15:16;103066.94;;;25.69;27.31
77739;BME280;66904;59.926;30.404;2023-04-06T10:25:36;103073.63;;;25.75;27.36
77739;BME280;66904;59.926;30.404;2023-04-06T10:30:42;103079.03;;;25.75;27.61
77739;BME280;66904;59.926;30.404;2023-04-06T10:35:46;103070.34;;;25.72;27.53
77739;BME280;66904;59.926;30.404;2023-04-06T10:40:47;103068.47;;;25.72;27.76
77739;BME280;66904;59.926;30.404;2023-04-06T10:46:00;103080.03;;;25.74;27.76
77739;BME280;66904;59.926;30.404;2023-04-06T10:51:00;103078.31;;;25.73;27.98
77739;BME280;66904;59.926;30.404;2023-04-06T10:56:02;103068.47;;;25.72;27.56
77739;BME280;66904;59.926;30.404;2023-04-06T11:01:03;103064.75;;;25.73;27.59
77739;BME280;66904;59.926;30.404;2023-04-06T11:06:03;103061.91;;;25.75;27.60
77739;BME280;66904;59.926;30.404;2023-04-06T11:11:06;103054.47;;;25.77;27.44
77739;BME280;66904;59.926;30.404;2023-04-06T11:16:12;103052.16;;;25.82;27.51
77739;BME280;66904;59.926;30.404;2023-04-06T11:21:13;103042.13;;;25.82;27.63
77739;BME280;66904;59.926;30.404;2023-04-06T11:26:14;103028.09;;;25.87;27.37
77739;BME280;66904;59.926;30.404;2023-04-06T11:31:15;103020.97;;;25.86;27.16
77739;BME280;66904;59.926;30.404;2023-04-06T11:36:16;103029.19;;;25.94;27.30
77739;BME280;66904;59.926;30.404;2023-04-06T11:41:16;103028.84;;;25.97;27.27
77739;BME280;66904;59.926;30.404;2023-04-06T11:46:18;103024.97;;;25.99;27.08
77739;BME280;66904;59.926;30.404;2023-04-06T11:51:22;103022.97;;;26.01;27.28
77739;BME280;66904;59.926;30.404;2023-04-06T11:56:28;103014.66;;;26.03;26.73
77739;BME280;66904;59.926;30.404;2023-04-06T12:01:29;103017.22;;;26.04;26.85
77739;BME280;66904;59.926;30.404;2023-04-06T12:06:31;103020.63;;;26.06;27.33
77739;BME280;66904;59.926;30.404;2023-04-06T12:11:31;103025.91;;;26.08;27.10
77739;BME280;66904;59.926;30.404;2023-04-06T12:16:38;103020.28;;;26.09;27.69
77739;BME280;66904;59.926;30.404;2023-04-06T12:21:38;103021.00;;;26.11;28.12
77739;BME280;66904;59.926;30.404;2023-04-06T12:26:40;103015.56;;;26.11;28.39
77739;BME280;66904;59.926;30.404;2023-04-06T12:31:41;103020.69;;;26.14;28.88
77739;BME280;66904;59.926;30.404;2023-04-06T12:36:44;103014.22;;;26.15;29.52
77739;BME280;66904;59.926;30.404;2023-04-06T12:41:45;103012.25;;;26.17;29.40
77739;BME280;66904;59.926;30.404;2023-04-06T12:46:45;102998.97;;;26.14;29.52
77739;BME280;66904;59.926;30.404;2023-04-06T12:51:46;103001.69;;;26.14;29.36
77739;BME280;66904;59.926;30.404;2023-04-06T12:56:47;102996.06;;;26.08;29.00
77739;BME280;66904;59.926;30.404;2023-04-06T13:01:47;102991.22;;;26.02;28.98
77739;BME280;66904;59.926;30.404;2023-04-06T13:06:48;102985.13;;;26.00;28.97
77739;BME280;66904;59.926;30.404;2023-04-06T13:11:50;102976.97;;;25.92;28.90
77739;BME280;66904;59.926;30.404;2023-04-06T13:16:51;102985.44;;;25.97;28.76
77739;BME280;66904;59.926;30.404;2023-04-06T13:21:52;102978.31;;;25.96;28.09
77739;BME280;66904;59.926;30.404;2023-04-06T13:26:58;102974.06;;;25.93;27.95
77739;BME280;66904;59.926;30.404;2023-04-06T13:32:12;102966.59;;;25.95;28.22
77739;BME280;66904;59.926;30.404;2023-04-06T13:37:16;102956.03;;;25.84;28.67
77739;BME280;66904;59.926;30.404;2023-04-06T13:42:16;102963.06;;;25.95;28.26
77739;BME280;66904;59.926;30.404;2023-04-06T13:47:17;102951.50;;;25.93;28.28
77739;BME280;66904;59.926;30.404;2023-04-06T13:52:18;102953.91;;;25.96;28.15
77739;BME280;66904;59.926;30.404;2023-04-06T13:57:21;102952.03;;;25.96;28.16
77739;BME280;66904;59.926;30.404;2023-04-06T14:02:22;102955.63;;;25.97;27.97
77739;BME280;66904;59.926;30.404;2023-04-06T14:07:27;102963.41;;;25.92;27.67
77739;BME280;66904;59.926;30.404;2023-04-06T14:12:32;102955.06;;;25.93;27.91
77739;BME280;66904;59.926;30.404;2023-04-06T14:17:32;102942.19;;;25.95;27.75
77739;BME280;66904;59.926;30.404;2023-04-06T14:22:33;102947.47;;;25.97;27.72
77739;BME280;66904;59.926;30.404;2023-04-06T14:27:33;102941.69;;;25.92;27.84
77739;BME280;66904;59.926;30.404;2023-04-06T14:32:34;102935.22;;;25.93;27.85
77739;BME280;66904;59.926;30.404;2023-04-06T14:37:34;102932.84;;;25.90;27.79
77739;BME280;66904;59.926;30.404;2023-04-06T14:42:44;102928.28;;;25.90;27.45
77739;BME280;66904;59.926;30.404;2023-04-06T14:47:51;102913.72;;;25.91;28.75
77739;BME280;66904;59.926;30.404;2023-04-06T14:52:54;102909.50;;;25.97;28.65
77739;BME280;66904;59.926;30.404;2023-04-06T14:58:04;102920.41;;;26.05;33.15
77739;BME280;66904;59.926;30.404;2023-04-06T15:03:07;102911.00;;;26.17;29.67
77739;BME280;66904;59.926;30.404;2023-04-06T15:08:32;102910.28;;;26.15;35.26
77739;BME280;66904;59.926;30.404;2023-04-06T15:13:45;102906.00;;;26.12;32.51
77739;BME280;66904;59.926;30.404;2023-04-06T15:24:14;102891.38;;;26.05;31.52
77739;BME280;66904;59.926;30.404;2023-04-06T15:29:14;102890.03;;;26.01;30.91
77739;BME280;66904;59.926;30.404;2023-04-06T15:34:15;102882.69;;;25.94;30.87
77739;BME280;66904;59.926;30.404;2023-04-06T15:39:16;102884.72;;;25.92;31.92
77739;BME280;66904;59.926;30.404;2023-04-06T15:44:16;102882.84;;;25.92;31.33
77739;BME280;66904;59.926;30.404;2023-04-06T15:49:19;102897.91;;;25.87;30.67
77739;BME280;66904;59.926;30.404;2023-04-06T15:54:19;102893.66;;;25.84;30.78
77739;BME280;66904;59.926;30.404;2023-04-06T15:59:20;102893.16;;;25.89;30.38
77739;BME280;66904;59.926;30.404;2023-04-06T16:04:21;102879.13;;;25.93;30.54
77739;BME280;66904;59.926;30.404;2023-04-06T16:09:50;102884.75;;;26.00;29.93
77739;BME280;66904;59.926;30.404;2023-04-06T16:15:22;102889.31;;;25.99;29.70
77739;BME280;66904;59.926;30.404;2023-04-06T16:20:35;102893.91;;;25.99;28.88
77739;BME280;66904;59.926;30.404;2023-04-06T16:25:41;102894.59;;;26.01;28.69
77739;BME280;66904;59.926;30.404;2023-04-06T16:31:03;102892.41;;;26.04;28.41
77739;BME280;66904;59.926;30.404;2023-04-06T16:36:04;102888.16;;;26.02;28.68
77739;BME280;66904;59.926;30.404;2023-04-06T16:41:24;102887.66;;;25.98;28.65
77739;BME280;66904;59.926;30.404;2023-04-06T16:46:32;102889.84;;;26.03;28.22
77739;BME280;66904;59.926;30.404;2023-04-06T16:51:48;102889.19;;;26.01;28.20
77739;BME280;66904;59.926;30.404;2023-04-06T17:02:48;102891.91;;;26.09;27.89
77739;BME280;66904;59.926;30.404;2023-04-06T17:07:48;102898.91;;;26.11;27.78
77739;BME280;66904;59.926;30.404;2023-04-06T17:12:49;102896.19;;;26.11;27.52
77739;BME280;66904;59.926;30.404;2023-04-06T17:17:50;102898.56;;;26.14;27.21
77739;BME280;66904;59.926;30.404;2023-04-06T17:22:51;102902.16;;;26.15;27.25
77739;BME280;66904;59.926;30.404;2023-04-06T17:27:51;102896.72;;;26.15;27.30
77739;BME280;66904;59.926;30.404;2023-04-06T17:32:52;102899.28;;;26.16;27.38
77739;BME280;66904;59.926;30.404;2023-04-06T17:37:53;102897.25;;;26.18;26.80
77739;BME280;66904;59.926;30.404;2023-04-06T17:42:53;102910.81;;;26.18;26.84
77739;BME280;66904;59.926;30.404;2023-04-06T17:47:54;102907.81;;;26.22;26.93
77739;BME280;66904;59.926;30.404;2023-04-06T17:52:54;102904.22;;;26.21;26.49
77739;BME280;66904;59.926;30.404;2023-04-06T17:57:55;102908.28;;;26.25;26.22
77739;BME280;66904;59.926;30.404;2023-04-06T18:02:56;102908.28;;;26.25;26.50
77739;BME280;66904;59.926;30.404;2023-04-06T18:07:56;102918.16;;;26.26;27.20
77739;BME280;66904;59.926;30.404;2023-04-06T18:12:57;102915.44;;;26.26;27.06
77739;BME280;66904;59.926;30.404;2023-04-06T18:18:00;102914.97;;;26.31;27.30
77739;BME280;66904;59.926;30.404;2023-04-06T18:23:01;102912.25;;;26.31;26.69
77739;BME280;66904;59.926;30.404;2023-04-06T18:28:02;102919.16;;;26.25;26.47
77739;BME280;66904;59.926;30.404;2023-04-06T18:33:03;102919.16;;;26.25;26.28
77739;BME280;66904;59.926;30.404;2023-04-06T18:38:03;102924.28;;;26.28;26.38
77739;BME280;66904;59.926;30.404;2023-04-06T18:43:06;102922.72;;;26.26;26.70
77739;BME280;66904;59.926;30.404;2023-04-06T18:48:07;102928.69;;;26.29;26.79
77739;BME280;66904;59.926;30.404;2023-04-06T18:53:08;102925.81;;;26.31;27.03
77739;BME280;66904;59.926;30.404;2023-04-06T18:58:23;102927.34;;;26.33;27.27
77739;BME280;66904;59.926;30.404;2023-04-06T19:03:24;102937.34;;;26.33;27.64
77739;BME280;66904;59.926;30.404;2023-04-06T19:08:25;102939.91;;;26.42;29.03
77739;BME280;66904;59.926;30.404;2023-04-06T19:13:26;102948.31;;;26.57;30.85
77739;BME280;66904;59.926;30.404;2023-04-06T19:18:27;102940.06;;;26.75;30.84
77739;BME280;66904;59.926;30.404;2023-04-06T19:23:28;102941.13;;;26.90;30.52
77739;BME280;66904;59.926;30.404;2023-04-06T19:28:29;102943.38;;;27.10;30.72
77739;BME280;66904;59.926;30.404;2023-04-06T19:33:29;102937.06;;;27.18;30.36
77739;BME280;66904;59.926;30.404;2023-04-06T19:38:31;102941.53;;;27.27;30.49
77739;BME280;66904;59.926;30.404;2023-04-06T19:43:32;102932.50;;;27.35;31.13
77739;BME280;66904;59.926;30.404;2023-04-06T19:48:33;102937.59;;;27.30;29.25
77739;BME280;66904;59.926;30.404;2023-04-06T19:53:46;102946.09;;;27.10;28.63
77739;BME280;66904;59.926;30.404;2023-04-06T19:58:49;102945.72;;;26.89;29.49
77739;BME280;66904;59.926;30.404;2023-04-06T20:03:58;102953.97;;;26.80;29.48
77739;BME280;66904;59.926;30.404;2023-04-06T20:08:59;102948.16;;;26.66;29.91
77739;BME280;66904;59.926;30.404;2023-04-06T20:14:06;102963.59;;;26.66;28.97
77739;BME280;66904;59.926;30.404;2023-04-06T20:19:15;102954.94;;;26.62;28.11
77739;BME280;66904;59.926;30.404;2023-04-06T20:24:22;102952.34;;;26.53;28.23
77739;BME280;66904;59.926;30.404;2023-04-06T20:29:35;102962.69;;;26.49;27.29
77739;BME280;66904;59.926;30.404;2023-04-06T20:34:54;102952.97;;;26.39;28.19
77739;BME280;66904;59.926;30.404;2023-04-06T20:40:01;102960.28;;;26.38;27.90
77739;BME280;66904;59.926;30.404;2023-04-06T20:45:37;102980.81;;;26.41;27.26
77739;BME280;66904;59.926;30.404;2023-04-06T20:56:12;102967.25;;;26.41;28.04
77739;BME280;66904;59.926;30.404;2023-04-06T21:01:18;102977.28;;;26.48;28.02
77739;BME280;66904;59.926;30.404;2023-04-06T21:06:29;102974.25;;;26.51;28.08
77739;BME280;66904;59.926;30.404;2023-04-06T21:11:41;102972.56;;;26.50;27.93
77739;BME280;66904;59.926;30.404;2023-04-06T21:16:42;102981.75;;;26.57;28.43
77739;BME280;66904;59.926;30.404;2023-04-06T21:21:42;102985.81;;;26.61;27.75
77739;BME280;66904;59.926;30.404;2023-04-06T21:26:43;102994.47;;;26.65;27.99
77739;BME280;66904;59.926;30.404;2023-04-06T21:31:44;102993.47;;;26.66;28.08
77739;BME280;66904;59.926;30.404;2023-04-06T21:37:00;102992.47;;;26.67;27.77
77739;BME280;66904;59.926;30.404;2023-04-06T21:42:12;102993.47;;;26.58;27.59
77739;BME280;66904;59.926;30.404;2023-04-06T21:47:15;103002.09;;;26.53;27.69
77739;BME280;66904;59.926;30.404;2023-04-06T21:52:22;103006.13;;;26.49;26.77
77739;BME280;66904;59.926;30.404;2023-04-06T21:57:28;103003.94;;;26.45;26.75
77739;BME280;66904;59.926;30.404;2023-04-06T22:03:05;102994.94;;;26.44;26.27
77739;BME280;66904;59.926;30.404;2023-04-06T22:08:30;103002.88;;;26.38;26.36
77739;BME280;66904;59.926;30.404;2023-04-06T22:13:37;103003.50;;;26.32;26.24
77739;BME280;66904;59.926;30.404;2023-04-06T22:19:11;103004.66;;;26.29;25.85
77739;BME280;66904;59.926;30.404;2023-04-06T22:24:25;103002.47;;;26.25;26.29
77739;BME280;66904;59.926;30.404;2023-04-06T22:29:25;102999.03;;;26.23;26.44
77739;BME280;66904;59.926;30.404;2023-04-06T22:34:26;103000.34;;;26.18;26.31
77739;BME280;66904;59.926;30.404;2023-04-06T22:44:48;103001.41;;;26.17;26.54
77739;BME280;66904;59.926;30.404;2023-04-06T22:49:49;103001.50;;;26.16;26.16
77739;BME280;66904;59.926;30.404;2023-04-06T22:54:49;103005.97;;;26.17;26.08
77739;BME280;66904;59.926;30.404;2023-04-06T22:59:50;103009.66;;;26.16;25.94
77739;BME280;66904;59.926;30.404;2023-04-06T23:04:50;103008.69;;;26.17;25.82
77739;BME280;66904;59.926;30.404;2023-04-06T23:21:21;103020.50;;;26.16;25.79
77739;BME280;66904;59.926;30.404;2023-04-06T23:26:27;103021.69;;;26.13;25.71
77739;BME280;66904;59.926;30.404;2023-04-06T23:37:11;103017.78;;;26.16;25.09
77739;BME280;66904;59.926;30.404;2023-04-06T23:42:18;103013.41;;;26.15;25.19
77739;BME280;66904;59.926;30.404;2023-04-06T23:47:18;103010.69;;;26.15;25.32
77739;BME280;66904;59.926;30.404;2023-04-06T23:52:19;103011.81;;;26.12;25.73
77739;BME280;66904;59.926;30.404;2023-04-06T23:57:19;103010.81;;;26.13;25.19
